createdAt,value
2018-09-28T00:00:50.211Z,1013.79
2018-09-28T00:01:50.192Z,1013.77
2018-09-28T00:02:50.196Z,1013.77
2018-09-28T00:03:50.201Z,1013.78
2018-09-28T00:04:50.212Z,1013.76
2018-09-28T00:05:50.253Z,1013.76
2018-09-28T00:06:50.264Z,1013.76
2018-09-28T00:07:50.220Z,1013.76
2018-09-28T00:08:50.233Z,1013.73
2018-09-28T00:09:50.275Z,1013.72
2018-09-28T00:10:50.281Z,1013.77
2018-09-28T00:11:50.279Z,1013.76
2018-09-28T00:12:50.279Z,1013.75
2018-09-28T00:13:50.312Z,1013.78
2018-09-28T00:14:50.353Z,1013.77
2018-09-28T00:15:50.309Z,1013.75
2018-09-28T00:16:50.331Z,1013.78
2018-09-28T00:17:50.318Z,1013.76
2018-09-28T00:18:50.375Z,1013.78
2018-09-28T00:19:50.359Z,1013.72
2018-09-28T00:20:50.379Z,1013.73
2018-09-28T00:21:50.384Z,1013.74
2018-09-28T00:22:50.381Z,1013.72
2018-09-28T00:23:50.381Z,1013.74
2018-09-28T00:24:50.383Z,1013.75
2018-09-28T00:25:50.771Z,1013.70
2018-09-28T00:26:50.414Z,1013.68
2018-09-28T00:27:50.430Z,1013.71
2018-09-28T00:28:50.439Z,1013.72
2018-09-28T00:29:50.441Z,1013.69
2018-09-28T00:30:50.472Z,1013.70
2018-09-28T00:31:50.524Z,1013.68
2018-09-28T00:32:50.466Z,1013.69
2018-09-28T00:33:50.530Z,1013.63
2018-09-28T00:34:50.507Z,1013.67
2018-09-28T00:35:50.497Z,1013.65
2018-09-28T00:36:50.553Z,1013.66
2018-09-28T00:37:50.516Z,1013.65
2018-09-28T00:38:50.526Z,1013.65
2018-09-28T00:39:50.536Z,1013.66
2018-09-28T00:40:50.526Z,1013.65
2018-09-28T00:41:50.532Z,1013.66
2018-09-28T00:42:50.585Z,1013.64
2018-09-28T00:43:50.584Z,1013.60
2018-09-28T00:44:50.587Z,1013.62
2018-09-28T00:45:50.592Z,1013.59
2018-09-28T00:46:50.609Z,1013.61
2018-09-28T00:47:50.606Z,1013.58
2018-09-28T00:48:50.667Z,1013.60
2018-09-28T00:49:50.646Z,1013.55
2018-09-28T00:50:50.638Z,1013.55
2018-09-28T00:51:50.644Z,1013.49
2018-09-28T00:52:50.647Z,1013.52
2018-09-28T00:53:50.724Z,1013.49
2018-09-28T00:54:50.648Z,1013.47
2018-09-28T00:55:50.669Z,1013.49
2018-09-28T00:56:50.682Z,1013.47
2018-09-28T00:57:50.745Z,1013.44
2018-09-28T00:58:50.695Z,1013.43
2018-09-28T00:59:50.701Z,1013.43
2018-09-28T01:00:50.737Z,1013.40
2018-09-28T01:01:50.777Z,1013.44
2018-09-28T01:02:50.741Z,1013.40
2018-09-28T01:03:50.795Z,1013.42
2018-09-28T01:04:50.759Z,1013.39
2018-09-28T01:05:50.760Z,1013.39
2018-09-28T03:26:21.016Z,1013.24
2018-09-28T03:27:21.018Z,1013.26
2018-09-28T03:28:21.047Z,1013.32
2018-09-28T03:29:21.032Z,1013.28
2018-09-28T03:30:21.221Z,1013.27
2018-09-28T03:31:21.064Z,1013.32
2018-09-28T03:32:21.031Z,1013.35
2018-09-28T03:33:21.062Z,1013.33
2018-09-28T03:34:21.064Z,1013.36
2018-09-28T03:35:21.150Z,1013.31
2018-09-28T03:36:21.096Z,1013.33
2018-09-28T03:37:21.075Z,1013.25
2018-09-28T03:38:21.154Z,1013.26
2018-09-28T03:39:21.107Z,1013.25
2018-09-28T03:40:21.154Z,1013.29
2018-09-28T03:41:21.154Z,1013.25
2018-09-28T03:42:21.161Z,1013.26
2018-09-28T03:43:21.124Z,1013.29
2018-09-28T03:44:21.138Z,1013.24
2018-09-28T03:45:21.182Z,1013.27
2018-09-28T03:46:21.214Z,1013.32
2018-09-28T03:47:21.216Z,1013.28
2018-09-28T03:48:21.161Z,1013.29
2018-09-28T03:49:21.199Z,1013.27
2018-09-28T03:50:21.199Z,1013.31
2018-09-28T03:51:21.193Z,1013.22
2018-09-28T03:52:21.253Z,1013.28
2018-09-28T03:53:21.229Z,1013.23
2018-09-28T03:54:21.212Z,1013.28
2018-09-28T03:55:21.272Z,1013.30
2018-09-28T03:56:21.245Z,1013.27
2018-09-28T03:57:21.248Z,1013.23
2018-09-28T03:58:21.270Z,1013.29
2018-09-28T03:59:21.264Z,1013.24
2018-09-28T04:00:21.315Z,1013.26
2018-09-28T04:01:21.287Z,1013.28
2018-09-28T04:02:21.298Z,1013.28
2018-09-28T04:03:21.325Z,1013.29
2018-09-28T04:04:21.346Z,1013.29
2018-09-28T04:05:21.339Z,1013.26
2018-09-28T04:06:21.370Z,1013.28
2018-09-28T04:07:21.368Z,1013.27
2018-09-28T04:08:21.363Z,1013.28
2018-09-28T04:09:21.350Z,1013.28
2018-09-28T04:10:21.383Z,1013.31
2018-09-28T04:11:21.446Z,1013.30
2018-09-28T04:12:21.513Z,1013.30
2018-09-28T04:13:21.387Z,1013.30
2018-09-28T04:14:21.407Z,1013.31
2018-09-28T04:15:21.417Z,1013.31
2018-09-28T04:16:21.423Z,1013.28
2018-09-28T04:17:21.460Z,1013.34
2018-09-28T04:18:21.450Z,1013.35
2018-09-28T04:19:21.458Z,1013.30
2018-09-28T04:20:21.461Z,1013.37
2018-09-28T04:21:21.460Z,1013.33
2018-09-28T04:22:21.549Z,1013.34
2018-09-28T04:23:21.483Z,1013.34
2018-09-28T04:24:21.483Z,1013.32
2018-09-28T04:25:21.492Z,1013.32
2018-09-28T04:26:21.518Z,1013.30
2018-09-28T04:27:21.520Z,1013.35
2018-09-28T04:28:21.548Z,1013.34
2018-09-28T04:29:21.543Z,1013.39
2018-09-28T04:30:21.546Z,1013.32
2018-09-28T04:31:21.544Z,1013.37
2018-09-28T04:32:21.546Z,1013.35
2018-09-28T04:33:21.600Z,1013.40
2018-09-28T04:34:21.626Z,1013.41
2018-09-28T04:35:21.577Z,1013.39
2018-09-28T04:36:21.584Z,1013.40
2018-09-28T04:37:21.593Z,1013.38
2018-09-28T04:38:21.589Z,1013.45
2018-09-28T04:39:21.610Z,1013.49
2018-09-28T04:40:21.685Z,1013.53
2018-09-28T04:41:21.606Z,1013.48
2018-09-28T04:42:21.624Z,1013.50
2018-09-28T04:43:21.638Z,1013.54
2018-09-28T04:44:21.640Z,1013.47
2018-09-28T04:45:21.819Z,1013.50
2018-09-28T04:46:21.698Z,1013.53
2018-09-28T04:47:21.702Z,1013.57
2018-09-28T04:48:21.704Z,1013.53
2018-09-28T04:49:21.666Z,1013.58
2018-09-28T04:50:21.725Z,1013.60
2018-09-28T04:51:21.715Z,1013.62
2018-09-28T04:52:21.741Z,1013.60
2018-09-28T04:53:21.732Z,1013.55
2018-09-28T04:54:21.757Z,1013.62
2018-09-28T04:55:21.901Z,1013.62
2018-09-28T04:56:21.750Z,1013.68
2018-09-28T04:57:21.750Z,1013.68
2018-09-28T04:58:21.801Z,1013.65
2018-09-28T04:59:21.791Z,1013.71
2018-09-28T05:00:21.799Z,1013.76
2018-09-28T05:01:21.810Z,1013.78
2018-09-28T05:02:21.811Z,1013.76
2018-09-28T05:03:21.816Z,1013.76
2018-09-28T05:04:21.816Z,1013.82
2018-09-28T05:05:21.856Z,1013.85
2018-09-28T05:06:21.846Z,1013.79
2018-09-28T05:07:21.844Z,1013.81
2018-09-28T05:08:21.859Z,1013.84
2018-09-28T05:09:21.865Z,1013.85
2018-09-28T05:10:21.872Z,1013.79
2018-09-28T05:11:21.873Z,1013.83
2018-09-28T05:12:21.918Z,1013.84
2018-09-28T05:13:21.932Z,1013.87
2018-09-28T05:14:21.919Z,1013.83
2018-09-28T05:15:21.995Z,1013.88
2018-09-28T05:16:21.918Z,1013.92
2018-09-28T05:17:22.017Z,1013.96
2018-09-28T05:18:21.962Z,1013.97
2018-09-28T05:19:22.070Z,1013.95
2018-09-28T05:20:21.971Z,1013.94
2018-09-28T05:21:22.004Z,1013.95
2018-09-28T05:22:21.968Z,1013.96
2018-09-28T05:23:21.996Z,1014.06
2018-09-28T05:24:21.987Z,1014.03
2018-09-28T05:25:22.064Z,1014.06
2018-09-28T05:26:22.023Z,1014.08
2018-09-28T05:27:22.025Z,1014.12
2018-09-28T05:28:22.014Z,1014.12
2018-09-28T05:29:22.044Z,1014.13
2018-09-28T05:30:22.075Z,1014.19
2018-09-28T05:31:22.282Z,1014.21
2018-09-28T05:32:22.218Z,1014.15
2018-09-28T05:33:22.076Z,1014.21
2018-09-28T05:34:22.136Z,1014.25
2018-09-28T05:35:22.097Z,1014.23
2018-09-28T05:36:22.088Z,1014.22
2018-09-28T05:37:22.143Z,1014.25
2018-09-28T05:38:22.135Z,1014.30
2018-09-28T05:39:22.173Z,1014.35
2018-09-28T05:40:22.144Z,1014.32
2018-09-28T05:41:22.185Z,1014.34
2018-09-28T05:42:22.156Z,1014.33
2018-09-28T05:43:22.197Z,1014.39
2018-09-28T05:44:22.177Z,1014.41
2018-09-28T05:45:22.198Z,1014.37
2018-09-28T05:46:22.200Z,1014.38
2018-09-28T05:47:22.231Z,1014.46
2018-09-28T05:48:22.204Z,1014.42
2018-09-28T05:49:22.224Z,1014.42
2018-09-28T05:50:22.235Z,1014.47
2018-09-28T05:51:22.307Z,1014.55
2018-09-28T05:52:22.245Z,1014.53
2018-09-28T05:53:22.262Z,1014.52
2018-09-28T05:54:22.244Z,1014.55
2018-09-28T05:55:22.253Z,1014.56
2018-09-28T05:56:22.439Z,1014.58
2018-09-28T05:57:22.307Z,1014.62
2018-09-28T05:58:22.301Z,1014.54
2018-09-28T05:59:22.332Z,1014.54
2018-09-28T06:00:22.288Z,1014.54
2018-09-28T06:01:22.313Z,1014.61
2018-09-28T06:02:22.340Z,1014.54
2018-09-28T06:03:22.379Z,1014.60
2018-09-28T06:04:22.365Z,1014.74
2018-09-28T06:05:22.414Z,1014.71
2018-09-28T06:06:22.384Z,1014.68
2018-09-28T06:07:22.381Z,1014.68
2018-09-28T06:08:22.423Z,1014.69
2018-09-28T06:09:22.389Z,1014.71
2018-09-28T06:10:22.397Z,1014.77
2018-09-28T06:11:22.408Z,1014.76
2018-09-28T06:12:22.424Z,1014.82
2018-09-28T06:13:22.469Z,1014.84
2018-09-28T06:14:22.425Z,1014.83
2018-09-28T06:15:22.487Z,1014.86
2018-09-28T06:16:22.456Z,1014.89
2018-09-28T06:17:22.465Z,1014.89
2018-09-28T06:18:22.512Z,1014.91
2018-09-28T06:19:23.390Z,1014.90
2018-09-28T06:20:22.481Z,1014.98
2018-09-28T06:21:22.514Z,1014.96
2018-09-28T06:22:22.495Z,1014.93
2018-09-28T06:23:22.600Z,1014.98
2018-09-28T06:24:22.516Z,1014.99
2018-09-28T06:25:22.573Z,1015.06
2018-09-28T06:26:22.532Z,1015.05
2018-09-28T06:27:22.523Z,1015.11
2018-09-28T06:28:22.543Z,1015.14
2018-09-28T06:29:22.791Z,1015.18
2018-09-28T06:30:22.611Z,1015.13
2018-09-28T06:31:22.597Z,1015.17
2018-09-28T06:32:22.660Z,1015.22
2018-09-28T06:33:22.626Z,1015.21
2018-09-28T06:34:22.633Z,1015.18
2018-09-28T06:35:22.681Z,1015.21
2018-09-28T06:36:22.778Z,1015.26
2018-09-28T06:37:22.640Z,1015.27
2018-09-28T06:38:22.658Z,1015.36
2018-09-28T06:39:22.681Z,1015.36
2018-09-28T07:16:00.874Z,1015.97
2018-09-28T07:17:00.789Z,1015.96
2018-09-28T07:18:00.870Z,1015.96
2018-09-28T07:19:00.815Z,1016.04
2018-09-28T07:20:00.815Z,1015.98
2018-09-28T07:21:00.816Z,1015.94
2018-09-28T07:22:00.882Z,1015.95
2018-09-28T07:23:00.829Z,1015.95
2018-09-28T07:24:00.928Z,1015.96
2018-09-28T07:25:00.922Z,1016.04
2018-09-28T07:26:00.853Z,1015.96
2018-09-28T07:27:00.969Z,1016.08
2018-09-28T07:28:00.901Z,1016.10
2018-09-28T07:29:00.874Z,1016.04
2018-09-28T07:30:00.921Z,1016.16
2018-09-28T07:31:00.932Z,1016.11
2018-09-28T07:32:00.907Z,1016.12
2018-09-28T07:33:00.927Z,1016.20
2018-09-28T07:34:00.990Z,1016.24
2018-09-28T07:35:00.944Z,1016.20
2018-09-28T07:36:00.984Z,1016.17
2018-09-28T07:37:01.066Z,1016.17
2018-09-28T07:38:00.969Z,1016.25
2018-09-28T07:39:00.978Z,1016.24
2018-09-28T07:40:00.995Z,1016.29
2018-09-28T07:41:01.053Z,1016.16
2018-09-28T07:42:01.002Z,1016.25
2018-09-28T07:43:00.996Z,1016.22
2018-09-28T07:44:01.007Z,1016.25
2018-09-28T07:45:01.040Z,1016.23
2018-09-28T07:46:01.023Z,1016.24
2018-09-28T07:47:01.132Z,1016.47
2018-09-28T07:48:01.088Z,1016.33
2018-09-28T07:49:01.083Z,1016.36
2018-09-28T07:50:01.051Z,1016.34
2018-09-28T07:51:01.050Z,1016.47
2018-09-28T07:52:01.122Z,1016.38
2018-09-28T07:53:01.086Z,1016.48
2018-09-28T07:54:01.099Z,1016.49
2018-09-28T07:55:01.080Z,1016.51
2018-09-28T07:56:01.104Z,1016.47
2018-09-28T07:57:01.163Z,1016.59
2018-09-28T07:58:01.140Z,1016.52
2018-09-28T07:59:01.153Z,1016.56
2018-09-28T08:00:01.155Z,1016.54
2018-09-28T08:01:01.161Z,1016.59
2018-09-28T08:02:01.171Z,1016.56
2018-09-28T08:03:01.198Z,1016.60
2018-09-28T08:04:01.262Z,1016.65
2018-09-28T08:05:01.182Z,1016.81
2018-09-28T08:06:01.214Z,1016.67
2018-09-28T08:07:01.201Z,1016.70
2018-09-28T08:08:01.209Z,1016.83
2018-09-28T08:09:01.249Z,1016.84
2018-09-28T08:10:01.257Z,1016.72
2018-09-28T08:11:01.258Z,1016.85
2018-09-28T08:12:01.257Z,1016.95
2018-09-28T08:13:01.259Z,1016.92
2018-09-28T08:14:01.273Z,1016.98
2018-09-28T08:15:01.270Z,1016.92
2018-09-28T08:16:01.430Z,1016.96
2018-09-28T08:17:01.288Z,1016.99
2018-09-28T08:18:01.401Z,1016.94
2018-09-28T08:19:01.302Z,1016.87
2018-09-28T08:20:01.350Z,1016.87
2018-09-28T08:21:01.367Z,1016.93
2018-09-28T08:22:01.320Z,1016.97
2018-09-28T08:23:01.324Z,1016.90
2018-09-28T08:24:01.348Z,1016.82
2018-09-28T08:25:01.361Z,1016.91
2018-09-28T08:26:01.406Z,1016.94
2018-09-28T08:27:01.402Z,1016.94
2018-09-28T08:28:01.420Z,1017.02
2018-09-28T08:29:01.369Z,1017.06
2018-09-28T08:30:01.376Z,1017.04
2018-09-28T08:31:01.426Z,1017.05
2018-09-28T08:32:01.471Z,1016.99
2018-09-28T08:33:01.457Z,1016.99
2018-09-28T08:34:01.447Z,1017.14
2018-09-28T08:35:01.448Z,1017.19
2018-09-28T08:36:01.469Z,1017.15
2018-09-28T08:37:01.477Z,1017.05
2018-09-28T08:38:01.470Z,1017.01
2018-09-28T08:39:01.539Z,1017.05
2018-09-28T08:40:01.544Z,1017.16
2018-09-28T08:41:01.485Z,1017.12
2018-09-28T08:42:01.503Z,1017.05
2018-09-28T08:43:01.572Z,1017.04
2018-09-28T08:44:01.520Z,1017.03
2018-09-28T08:45:01.558Z,1017.03
2018-09-28T08:46:01.548Z,1017.23
2018-09-28T08:47:01.608Z,1017.14
2018-09-28T08:48:01.598Z,1017.15
2018-09-28T08:49:01.623Z,1017.26
2018-09-28T08:50:01.606Z,1017.20
2018-09-28T08:51:01.572Z,1017.17
2018-09-28T08:52:01.655Z,1017.30
2018-09-28T08:53:01.615Z,1017.25
2018-09-28T08:54:01.659Z,1017.19
2018-09-28T08:55:01.620Z,1017.21
2018-09-28T08:56:01.606Z,1017.33
2018-09-28T08:57:01.670Z,1017.19
2018-09-28T08:58:01.642Z,1017.25
2018-09-28T08:59:01.700Z,1017.33
2018-09-28T09:00:01.771Z,1017.28
2018-09-28T09:01:01.671Z,1017.34
2018-09-28T09:02:01.793Z,1017.37
2018-09-28T09:03:01.677Z,1017.52
2018-09-28T09:04:01.705Z,1017.45
2018-09-28T09:05:01.708Z,1017.37
2018-09-28T09:06:01.757Z,1017.33
2018-09-28T09:07:01.695Z,1017.30
2018-09-28T09:08:01.742Z,1017.48
2018-09-28T09:09:01.771Z,1017.41
2018-09-28T09:10:01.733Z,1017.41
2018-09-28T09:11:01.786Z,1017.43
2018-09-28T09:12:01.796Z,1017.39
2018-09-28T09:13:01.768Z,1017.47
2018-09-28T09:14:01.773Z,1017.45
2018-09-28T09:15:01.819Z,1017.45
2018-09-28T09:16:01.799Z,1017.50
2018-09-28T09:17:01.845Z,1017.45
2018-09-28T09:18:01.901Z,1017.39
2018-09-28T09:19:01.901Z,1017.36
2018-09-28T09:20:01.846Z,1017.45
2018-09-28T09:21:01.851Z,1017.49
2018-09-28T09:22:01.884Z,1017.44
2018-09-28T09:23:01.869Z,1017.41
2018-09-28T09:24:02.066Z,1017.40
2018-09-28T09:25:01.878Z,1017.40
2018-09-28T09:26:01.929Z,1017.51
2018-09-28T09:27:01.889Z,1017.41
2018-09-28T09:28:01.902Z,1017.49
2018-09-28T09:29:01.924Z,1017.47
2018-09-28T09:30:02.048Z,1017.44
2018-09-28T09:31:01.929Z,1017.47
2018-09-28T09:32:01.966Z,1017.50
2018-09-28T09:33:01.990Z,1017.55
2018-09-28T09:34:01.943Z,1017.48
2018-09-28T09:35:02.009Z,1017.46
2018-09-28T09:36:02.003Z,1017.48
2018-09-28T09:37:02.014Z,1017.60
2018-09-28T09:38:02.025Z,1017.55
2018-09-28T09:39:02.063Z,1017.51
2018-09-28T09:40:02.026Z,1017.51
2018-09-28T09:41:02.049Z,1017.55
2018-09-28T09:42:02.040Z,1017.52
2018-09-28T09:43:02.064Z,1017.48
2018-09-28T09:44:02.048Z,1017.54
2018-09-28T09:45:02.070Z,1017.55
2018-09-28T09:46:02.118Z,1017.58
2018-09-28T09:47:02.088Z,1017.47
2018-09-28T09:48:02.076Z,1017.49
2018-09-28T09:49:02.094Z,1017.55
2018-09-28T09:50:02.109Z,1017.68
2018-09-28T09:51:05.181Z,1017.61
2018-09-28T09:52:03.774Z,1017.64
2018-09-28T09:53:02.124Z,1017.58
2018-09-28T09:54:02.136Z,1017.73
2018-09-28T09:55:02.152Z,1017.61
2018-09-28T09:56:02.160Z,1017.58
2018-09-28T09:57:02.243Z,1017.62
2018-09-28T09:58:02.195Z,1017.67
2018-09-28T09:59:02.189Z,1017.54
2018-09-28T10:00:02.195Z,1017.54
2018-09-28T10:01:02.186Z,1017.56
2018-09-28T10:02:02.197Z,1017.57
2018-09-28T10:03:02.260Z,1017.62
2018-09-28T10:04:02.514Z,1017.52
2018-09-28T10:05:02.230Z,1017.67
2018-09-28T10:06:02.250Z,1017.54
2018-09-28T10:07:02.258Z,1017.57
2018-09-28T10:08:02.495Z,1017.61
2018-09-28T10:09:02.273Z,1017.71
2018-09-28T10:10:02.290Z,1017.65
2018-09-28T10:11:02.307Z,1017.73
2018-09-28T10:12:02.417Z,1017.65
2018-09-28T10:13:02.391Z,1017.61
2018-09-28T10:14:02.431Z,1017.62
2018-09-28T10:15:02.320Z,1017.58
2018-09-28T10:16:03.266Z,1017.51
2018-09-28T10:17:02.359Z,1017.53
2018-09-28T10:18:02.333Z,1017.57
2018-09-28T10:19:02.359Z,1017.52
2018-09-28T10:20:02.355Z,1017.58
2018-09-28T10:21:02.408Z,1017.54
2018-09-28T10:22:02.410Z,1017.59
2018-09-28T10:23:02.419Z,1017.53
2018-09-28T10:24:02.428Z,1017.50
2018-09-28T10:25:02.416Z,1017.51
2018-09-28T10:26:02.402Z,1017.58
2018-09-28T10:27:02.465Z,1017.46
2018-09-28T10:28:02.474Z,1017.57
2018-09-28T10:29:02.441Z,1017.64
2018-09-28T10:30:02.496Z,1017.52
2018-09-28T10:31:02.465Z,1017.70
2018-09-28T10:32:02.499Z,1017.54
2018-09-28T10:33:02.497Z,1017.55
2018-09-28T10:34:02.489Z,1017.54
2018-09-28T10:35:02.532Z,1017.58
2018-09-28T10:36:02.518Z,1017.58
2018-09-28T10:37:02.535Z,1017.62
2018-09-28T10:38:02.514Z,1017.61
2018-09-28T10:39:02.516Z,1017.54
2018-09-28T10:40:02.589Z,1017.62
2018-09-28T10:41:02.681Z,1017.72
2018-09-28T10:42:02.577Z,1017.69
2018-09-28T10:43:02.576Z,1017.69
2018-09-28T10:44:02.574Z,1017.72
2018-09-28T10:45:02.752Z,1017.70
2018-09-28T10:46:02.594Z,1017.75
2018-09-28T10:47:02.599Z,1017.66
2018-09-28T10:48:02.886Z,1017.62
2018-09-28T10:49:02.604Z,1017.69
2018-09-28T10:50:02.646Z,1017.77
2018-09-28T10:51:02.658Z,1017.68
2018-09-28T10:52:02.814Z,1017.78
2018-09-28T10:53:02.732Z,1017.87
2018-09-28T10:54:02.683Z,1017.70
2018-09-28T10:55:02.676Z,1017.66
2018-09-28T10:56:02.702Z,1017.71
2018-09-28T10:57:02.708Z,1017.73
2018-09-28T10:58:03.254Z,1017.69
2018-09-28T10:59:02.734Z,1017.68
2018-09-28T11:00:02.758Z,1017.65
2018-09-28T11:01:02.766Z,1017.68
2018-09-28T11:02:02.727Z,1017.69
2018-09-28T11:03:02.735Z,1017.77
2018-09-28T11:04:02.729Z,1017.68
2018-09-28T11:05:02.768Z,1017.65
2018-09-28T11:06:02.909Z,1017.57
2018-09-28T11:07:02.806Z,1017.58
2018-09-28T11:08:02.781Z,1017.59
2018-09-28T11:09:02.790Z,1017.71
2018-09-28T11:10:02.806Z,1017.65
2018-09-28T11:11:02.827Z,1017.67
2018-09-28T11:12:02.852Z,1017.78
2018-09-28T11:13:03.734Z,1017.72
2018-09-28T11:14:02.828Z,1017.79
2018-09-28T11:15:02.857Z,1017.69
2018-09-28T11:16:02.852Z,1017.87
2018-09-28T11:17:02.911Z,1017.73
2018-09-28T11:18:02.852Z,1017.81
2018-09-28T11:19:02.942Z,1017.66
2018-09-28T11:20:02.904Z,1017.85
2018-09-28T11:21:02.913Z,1017.90
2018-09-28T11:22:02.904Z,1017.79
2018-09-28T11:23:02.976Z,1017.76
2018-09-28T11:24:02.929Z,1017.75
2018-09-28T11:25:02.960Z,1017.74
2018-09-28T11:26:02.957Z,1017.69
2018-09-28T11:27:02.962Z,1017.74
2018-09-28T11:28:03.000Z,1017.64
2018-09-28T11:29:02.964Z,1017.61
2018-09-28T11:30:02.988Z,1017.72
2018-09-28T11:31:02.988Z,1017.75
2018-09-28T11:32:02.980Z,1017.62
2018-09-28T11:33:03.036Z,1017.65
2018-09-28T11:34:03.039Z,1017.75
2018-09-28T11:35:03.028Z,1017.66
2018-09-28T11:36:03.040Z,1017.96
2018-09-28T11:37:03.051Z,1017.92
2018-09-28T11:38:03.044Z,1017.70
2018-09-28T11:39:03.123Z,1017.76
2018-09-28T11:40:03.093Z,1017.98
2018-09-28T11:41:03.315Z,1017.97
2018-09-28T11:42:03.114Z,1017.85
2018-09-28T11:43:03.129Z,1017.82
2018-09-28T11:44:03.105Z,1017.87
2018-09-28T11:45:03.137Z,1017.82
2018-09-28T11:46:03.192Z,1017.86
2018-09-28T11:47:03.143Z,1017.87
2018-09-28T11:48:03.149Z,1017.84
2018-09-28T11:49:03.189Z,1017.83
2018-09-28T11:50:03.184Z,1017.87
2018-09-28T11:51:03.169Z,1017.77
2018-09-28T11:52:03.222Z,1017.73
2018-09-28T11:53:03.210Z,1017.75
2018-09-28T11:54:03.234Z,1017.71
2018-09-28T11:55:03.198Z,1017.83
2018-09-28T11:56:03.246Z,1017.97
2018-09-28T11:57:03.268Z,1018.01
2018-09-28T11:58:03.241Z,1018.03
2018-09-28T11:59:03.274Z,1017.89
2018-09-28T12:00:03.320Z,1018.03
2018-09-28T12:01:03.322Z,1017.87
2018-09-28T12:02:03.283Z,1017.92
2018-09-28T12:03:03.292Z,1017.99
2018-09-28T12:04:03.309Z,1017.92
2018-09-28T12:05:03.387Z,1017.86
2018-09-28T12:06:03.334Z,1017.79
2018-09-28T12:07:03.370Z,1017.79
2018-09-28T12:08:03.346Z,1017.86
2018-09-28T12:09:03.706Z,1017.84
2018-09-28T12:10:03.361Z,1017.84
2018-09-28T12:11:03.447Z,1017.73
2018-09-28T12:12:03.408Z,1017.71
2018-09-28T12:13:03.408Z,1017.68
2018-09-28T12:14:03.376Z,1017.65
2018-09-28T12:15:03.435Z,1017.64
2018-09-28T12:16:03.398Z,1017.69
2018-09-28T12:17:03.419Z,1017.70
2018-09-28T12:18:03.451Z,1017.72
2018-09-28T12:19:03.452Z,1017.71
2018-09-28T12:20:03.491Z,1017.69
2018-09-28T12:21:03.603Z,1017.70
2018-09-28T12:22:03.452Z,1017.77
2018-09-28T12:23:03.494Z,1017.69
2018-09-28T12:24:03.526Z,1017.75
2018-09-28T12:25:03.523Z,1017.77
2018-09-28T12:26:03.565Z,1017.91
2018-09-28T12:27:03.543Z,1017.77
2018-09-28T12:28:03.523Z,1017.98
2018-09-28T12:29:03.533Z,1017.77
2018-09-28T12:30:03.627Z,1017.77
2018-09-28T12:31:04.256Z,1017.78
2018-09-28T12:32:03.583Z,1017.74
2018-09-28T12:33:03.615Z,1017.82
2018-09-28T12:34:03.563Z,1017.69
2018-09-28T12:35:03.597Z,1017.75
2018-09-28T12:36:03.595Z,1017.82
2018-09-28T12:37:03.670Z,1017.75
2018-09-28T12:38:03.872Z,1017.69
2018-09-28T12:39:03.640Z,1017.73
2018-09-28T12:40:03.768Z,1017.82
2018-09-28T12:41:03.641Z,1017.87
2018-09-28T12:42:03.699Z,1017.82
2018-09-28T12:43:03.661Z,1017.88
2018-09-28T12:44:03.726Z,1017.85
2018-09-28T12:45:03.708Z,1017.90
2018-09-28T12:46:03.711Z,1017.90
2018-09-28T12:47:03.741Z,1017.93
2018-09-28T12:48:03.750Z,1017.89
2018-09-28T12:49:03.733Z,1017.95
2018-09-28T12:50:03.734Z,1017.86
2018-09-28T12:51:03.763Z,1017.85
2018-09-28T12:52:03.839Z,1017.90
2018-09-28T12:53:03.769Z,1017.75
2018-09-28T12:54:03.776Z,1017.80
2018-09-28T12:55:03.801Z,1017.84
2018-09-28T12:56:03.828Z,1017.89
2018-09-28T12:57:03.810Z,1017.84
2018-09-28T12:58:03.805Z,1017.81
2018-09-28T12:59:03.815Z,1017.89
2018-09-28T13:00:05.072Z,1017.94
2018-09-28T13:01:03.949Z,1017.88
2018-09-28T13:02:03.896Z,1017.86
2018-09-28T13:03:03.881Z,1017.90
2018-09-28T13:04:03.868Z,1017.86
2018-09-28T13:05:03.858Z,1017.90
2018-09-28T13:06:03.945Z,1017.87
2018-09-28T13:07:03.905Z,1017.89
2018-09-28T13:08:03.944Z,1017.96
2018-09-28T13:09:03.933Z,1017.91
2018-09-28T13:10:03.923Z,1017.86
2018-09-28T13:11:03.990Z,1017.91
2018-09-28T13:12:03.956Z,1017.91
2018-09-28T13:13:03.957Z,1017.92
2018-09-28T13:14:03.959Z,1017.93
2018-09-28T13:15:04.132Z,1017.90
2018-09-28T13:16:04.024Z,1017.90
2018-09-28T13:17:04.004Z,1017.80
2018-09-28T13:18:03.994Z,1017.82
2018-09-28T13:19:04.007Z,1017.83
2018-09-28T13:20:04.014Z,1017.97
2018-09-28T13:21:04.104Z,1017.92
2018-09-28T13:22:04.030Z,1017.96
2018-09-28T13:23:04.051Z,1018.02
2018-09-28T13:24:04.157Z,1017.97
2018-09-28T13:25:04.070Z,1017.86
2018-09-28T13:26:04.097Z,1017.95
2018-09-28T13:27:04.078Z,1018.08
2018-09-28T13:28:04.132Z,1017.91
2018-09-28T13:29:04.135Z,1017.99
2018-09-28T13:30:04.181Z,1018.03
2018-09-28T13:31:04.199Z,1017.98
2018-09-28T13:32:04.231Z,1018.01
2018-09-28T13:33:04.273Z,1018.37
2018-09-28T13:34:04.157Z,1018.10
2018-09-28T13:35:04.148Z,1018.03
2018-09-28T13:36:04.154Z,1018.12
2018-09-28T13:37:04.887Z,1018.08
2018-09-28T13:38:04.243Z,1018.07
2018-09-28T13:39:05.000Z,1018.12
2018-09-28T13:40:04.188Z,1018.16
2018-09-28T13:41:04.207Z,1018.08
2018-09-28T13:42:04.270Z,1018.09
2018-09-28T13:43:04.289Z,1018.13
2018-09-28T13:44:04.248Z,1018.22
2018-09-28T13:45:04.280Z,1018.20
2018-09-28T13:46:04.339Z,1018.20
2018-09-28T13:47:05.270Z,1018.20
2018-09-28T13:48:04.295Z,1018.29
2018-09-28T13:49:04.291Z,1018.27
2018-09-28T13:50:04.317Z,1018.30
2018-09-28T13:51:04.313Z,1018.49
2018-09-28T13:52:04.534Z,1018.25
2018-09-28T13:53:04.348Z,1018.23
2018-09-28T13:54:04.506Z,1018.17
2018-09-28T13:55:04.387Z,1018.26
2018-09-28T13:56:04.343Z,1018.28
2018-09-28T13:57:04.476Z,1018.20
2018-09-28T13:58:04.384Z,1018.34
2018-09-28T13:59:04.444Z,1018.30
2018-09-28T14:00:04.385Z,1018.32
2018-09-28T14:01:04.408Z,1018.49
2018-09-28T14:02:04.431Z,1018.41
2018-09-28T14:03:04.458Z,1018.44
2018-09-28T14:04:04.425Z,1018.45
2018-09-28T14:05:04.445Z,1018.43
2018-09-28T14:06:04.472Z,1018.36
2018-09-28T14:07:04.531Z,1018.44
2018-09-28T14:08:04.526Z,1018.39
2018-09-28T14:09:04.544Z,1018.36
2018-09-28T14:10:04.503Z,1018.56
2018-09-28T14:11:04.543Z,1018.43
2018-09-28T14:12:04.539Z,1018.47
2018-09-28T14:13:04.510Z,1018.45
2018-09-28T14:14:04.515Z,1018.55
2018-09-28T14:15:04.599Z,1018.85
2018-09-28T14:16:04.562Z,1018.44
2018-09-28T14:17:04.572Z,1018.50
2018-09-28T14:18:04.574Z,1018.41
2018-09-28T14:19:04.589Z,1018.48
2018-09-28T14:20:04.607Z,1018.51
2018-09-28T14:21:04.589Z,1018.55
2018-09-28T14:22:04.648Z,1018.53
2018-09-28T14:23:04.617Z,1018.67
2018-09-28T14:24:04.688Z,1018.65
2018-09-28T14:25:04.641Z,1018.53
2018-09-28T14:26:04.674Z,1018.76
2018-09-28T14:27:04.631Z,1018.48
2018-09-28T14:28:04.713Z,1018.51
2018-09-28T14:29:04.671Z,1018.51
2018-09-28T14:30:04.810Z,1018.58
2018-09-28T14:31:04.682Z,1018.61
2018-09-28T14:32:04.694Z,1018.53
2018-09-28T14:33:04.698Z,1018.63
2018-09-28T14:34:04.721Z,1018.62
2018-09-28T14:35:04.703Z,1018.68
2018-09-28T14:36:04.720Z,1018.67
2018-09-28T14:37:04.751Z,1018.66
2018-09-28T14:38:04.723Z,1018.66
2018-09-28T14:39:04.767Z,1018.62
2018-09-28T14:40:04.765Z,1018.65
2018-09-28T14:41:04.747Z,1018.71
2018-09-28T14:42:04.779Z,1018.62
2018-09-28T14:43:04.806Z,1018.71
2018-09-28T14:44:04.967Z,1018.59
2018-09-28T14:45:04.858Z,1018.75
2018-09-28T14:46:04.809Z,1018.65
2018-09-28T14:47:04.811Z,1018.70
2018-09-28T14:48:04.886Z,1018.72
2018-09-28T14:49:04.909Z,1018.80
2018-09-28T14:50:04.866Z,1018.72
2018-09-28T14:51:04.880Z,1018.71
2018-09-28T14:52:05.116Z,1018.75
2018-09-28T14:53:04.883Z,1018.78
2018-09-28T14:54:04.910Z,1018.76
2018-09-28T14:55:04.940Z,1018.75
2018-09-28T14:56:04.905Z,1018.73
2018-09-28T14:57:04.917Z,1018.74
2018-09-28T14:58:04.942Z,1018.78
2018-09-28T14:59:04.914Z,1018.85
2018-09-28T15:00:04.985Z,1018.86
2018-09-28T15:01:05.108Z,1018.87